Time;durP1;ratioP1;P1;durP2;ratioP2;P2;SDS_P1;SDS_P2;PMS_P1;PMS_P2;Temp;Humidity;BMP_temperature;BMP_pressure;BME280_temperature;BME280_humidity;BME280_pressure;Samples;Min_cycle;Max_cycle;Signal;HPM_P1;HPM_P2
2021/12/19 00:02:28;;;;;;;24.10;11.70;;;6.60;99.90;;;;;;5049517;28;20458;-83
2021/12/19 00:10:32;;;;;;;21.50;11.40;;;6.70;99.90;;;;;;5050067;28;20713;-85
2021/12/19 00:13:00;;;;;;;25.80;13.43;;;6.60;99.90;;;;;;5059891;28;20455;-84
2021/12/19 00:15:28;;;;;;;26.63;11.00;;;6.60;99.90;;;;;;5049262;28;20459;-86
2021/12/19 00:17:57;;;;;;;24.80;12.43;;;6.70;99.90;;;;;;5056007;28;21004;-83
2021/12/19 00:20:27;;;;;;;29.17;12.30;;;6.60;99.90;;;;;;5052717;28;20993;-84
2021/12/19 00:23:15;;;;;;;25.27;11.80;;;6.60;99.90;;;;;;5058060;28;20919;-84
2021/12/19 00:25:44;;;;;;;23.33;12.27;;;6.50;99.90;;;;;;5060559;28;20819;-85
2021/12/19 00:28:12;;;;;;;24.80;12.03;;;6.60;99.90;;;;;;5057927;28;20494;-84
2021/12/19 00:30:40;;;;;;;31.67;12.87;;;6.50;99.90;;;;;;5053960;28;20998;-83
2021/12/19 00:33:09;;;;;;;22.13;11.30;;;6.60;99.90;;;;;;5050721;28;20504;-83
2021/12/19 00:35:38;;;;;;;29.70;15.50;;;6.50;99.90;;;;;;5052545;28;20909;-82
2021/12/19 00:38:07;;;;;;;25.33;10.97;;;6.60;99.90;;;;;;5051131;28;22399;-82
2021/12/19 00:40:36;;;;;;;23.95;12.18;;;6.60;99.90;;;;;;5050044;28;20475;-81
2021/12/19 00:43:07;;;;;;;26.90;12.77;;;6.60;99.90;;;;;;5057743;28;20200;-81
2021/12/19 00:45:37;;;;;;;23.67;9.85;;;6.60;99.90;;;;;;5055052;28;21286;-82
2021/12/19 00:48:08;;;;;;;24.08;11.52;;;6.50;99.90;;;;;;5058449;28;20255;-83
2021/12/19 00:50:38;;;;;;;23.40;12.02;;;6.50;99.90;;;;;;5051081;28;20221;-83
2021/12/19 00:53:06;;;;;;;26.27;11.90;;;6.60;99.90;;;;;;5056054;28;20204;-83
2021/12/19 00:55:35;;;;;;;29.13;11.87;;;6.50;99.90;;;;;;5058295;28;20969;-81
2021/12/19 00:58:05;;;;;;;25.60;11.70;;;6.50;99.90;;;;;;5058166;28;20455;-81
2021/12/19 01:00:35;;;;;;;21.80;10.23;;;6.50;99.90;;;;;;5056656;28;20506;-82
2021/12/19 01:03:04;;;;;;;29.70;12.57;;;6.40;99.90;;;;;;5058027;28;20497;-81
2021/12/19 01:05:36;;;;;;;24.48;11.32;;;6.30;99.90;;;;;;5055394;28;20447;-82
2021/12/19 01:08:07;;;;;;;26.60;10.93;;;6.20;99.90;;;;;;5056345;28;20470;-82
2021/12/19 01:10:36;;;;;;;23.77;10.47;;;6.10;1.00;;;;;;5055957;28;20223;-82
2021/12/19 01:13:04;;;;;;;25.40;9.57;;;6.20;99.90;;;;;;5057231;28;20451;-81
2021/12/19 01:15:34;;;;;;;26.63;13.38;;;6.30;99.90;;;;;;5049019;28;20502;-80
2021/12/19 01:18:03;;;;;;;21.40;9.90;;;6.20;99.90;;;;;;5058037;28;20664;-80
2021/12/19 01:20:34;;;;;;;29.23;14.00;;;6.00;1.00;;;;;;5059086;28;20585;-83
2021/12/19 01:23:03;;;;;;;22.73;11.60;;;5.90;1.00;;;;;;5056870;28;20197;-81
2021/12/19 01:25:33;;;;;;;22.42;10.07;;;6.00;1.00;;;;;;5061629;28;20557;-82
2021/12/19 01:28:01;;;;;;;32.03;12.55;;;6.00;1.00;;;;;;5062651;28;20212;-80
2021/12/19 01:30:30;;;;;;;22.37;9.83;;;5.90;1.00;;;;;;5062270;28;20218;-84
2021/12/19 01:32:58;;;;;;;24.73;11.27;;;6.00;1.00;;;;;;5061270;28;20454;-84
2021/12/19 01:35:26;;;;;;;25.95;10.95;;;5.80;1.00;;;;;;5051412;28;20656;-85
2021/12/19 01:37:55;;;;;;;20.80;9.93;;;5.90;1.00;;;;;;5060171;28;20201;-82
2021/12/19 01:40:24;;;;;;;23.50;10.82;;;5.90;1.00;;;;;;5059457;28;20562;-82
2021/12/19 01:42:55;;;;;;;28.87;10.10;;;6.00;1.00;;;;;;5058332;28;20194;-82
2021/12/19 01:45:27;;;;;;;22.27;9.35;;;6.00;1.00;;;;;;5054528;28;20462;-82
2021/12/19 01:47:56;;;;;;;14.93;7.77;;;5.80;1.00;;;;;;5058015;28;20205;-81
2021/12/19 01:50:25;;;;;;;18.92;9.70;;;5.70;1.00;;;;;;5058580;28;21014;-81
2021/12/19 01:52:53;;;;;;;19.52;8.00;;;5.70;1.00;;;;;;5054054;28;20236;-82
2021/12/19 01:55:21;;;;;;;16.98;8.05;;;5.70;1.00;;;;;;5058185;28;20258;-84
2021/12/19 01:57:50;;;;;;;20.20;9.50;;;5.70;1.00;;;;;;5058659;28;20680;-80
2021/12/19 02:00:23;;;;;;;19.80;7.70;;;5.80;1.00;;;;;;5058529;28;20697;-83
2021/12/19 02:02:51;;;;;;;14.25;8.05;;;5.80;1.00;;;;;;5055692;28;20668;-83
2021/12/19 02:05:20;;;;;;;18.67;8.80;;;5.90;1.00;;;;;;5054769;28;20208;-82
2021/12/19 02:07:49;;;;;;;22.13;9.40;;;6.00;1.00;;;;;;5054347;28;20687;-81
2021/12/19 02:10:19;;;;;;;15.95;7.30;;;6.30;1.00;;;;;;5062797;28;21032;-83
2021/12/19 02:12:49;;;;;;;15.73;7.97;;;5.90;1.00;;;;;;5055967;28;20216;-83
2021/12/19 02:15:20;;;;;;;15.40;6.47;;;5.80;1.00;;;;;;5052360;28;20193;-83
2021/12/19 02:17:52;;;;;;;20.15;6.57;;;5.60;1.00;;;;;;5062478;28;20459;-83
2021/12/19 02:20:23;;;;;;;20.45;8.23;;;5.60;1.00;;;;;;5059201;28;20231;-82
2021/12/19 02:22:51;;;;;;;18.48;7.93;;;5.60;1.00;;;;;;5059363;28;20204;-85
2021/12/19 02:25:20;;;;;;;19.73;6.97;;;5.50;1.00;;;;;;5053078;28;20206;-82
2021/12/19 02:27:48;;;;;;;17.27;7.27;;;5.60;1.00;;;;;;5075111;28;20211;-83
2021/12/19 02:30:16;;;;;;;20.27;8.55;;;5.90;1.00;;;;;;5051246;28;20487;-84
2021/12/19 02:32:45;;;;;;;17.92;6.72;;;5.70;1.00;;;;;;5048111;28;20228;-83
2021/12/19 02:35:19;;;;;;;12.80;6.15;;;5.80;1.00;;;;;;5053427;28;20204;-83
2021/12/19 02:48:57;;;;;;;17.75;9.25;;;5.90;1.00;;;;;;5053027;28;20218;-84
2021/12/19 02:51:30;;;;;;;15.68;6.90;;;5.90;1.00;;;;;;5057275;28;20305;-82
2021/12/19 02:54:00;;;;;;;18.33;8.00;;;5.90;1.00;;;;;;5056701;28;20695;-82
2021/12/19 02:56:29;;;;;;;17.38;6.95;;;5.90;1.00;;;;;;5053069;28;20204;-83
2021/12/19 02:58:57;;;;;;;17.50;7.88;;;6.20;1.00;;;;;;5056238;28;20205;-81
2021/12/19 03:01:26;;;;;;;14.75;7.20;;;5.90;1.00;;;;;;5047801;28;20354;-82
2021/12/19 03:03:55;;;;;;;17.02;7.75;;;5.90;1.00;;;;;;5059428;28;20864;-81
2021/12/19 03:06:24;;;;;;;19.23;7.27;;;5.90;1.00;;;;;;5054179;28;20560;-83
2021/12/19 03:08:53;;;;;;;25.75;8.60;;;5.90;1.00;;;;;;5062036;28;20463;-83
2021/12/19 03:19:54;;;;;;;13.23;7.70;;;5.90;1.00;;;;;;5040136;28;20486;-82
2021/12/19 03:22:22;;;;;;;20.03;7.47;;;5.90;1.00;;;;;;5053637;28;20451;-83
2021/12/19 03:24:50;;;;;;;20.35;8.15;;;5.90;1.00;;;;;;5056218;28;20458;-82
2021/12/19 03:27:20;;;;;;;18.13;7.97;;;6.00;1.00;;;;;;5056631;28;20205;-84
2021/12/19 03:29:48;;;;;;;17.45;7.90;;;6.30;1.00;;;;;;5060532;28;20494;-82
2021/12/19 03:32:16;;;;;;;16.70;7.43;;;5.90;99.90;;;;;;5059988;28;20220;-84
2021/12/19 03:34:44;;;;;;;16.65;6.55;;;6.00;99.90;;;;;;5058293;28;20480;-82
2021/12/19 03:37:13;;;;;;;16.00;6.93;;;5.90;99.90;;;;;;5055637;28;20749;-82
2021/12/19 03:39:56;;;;;;;18.77;7.60;;;5.90;99.90;;;;;;5054571;28;20490;-81
2021/12/19 03:42:27;;;;;;;15.77;7.53;;;5.90;99.90;;;;;;5054440;28;20242;-81
2021/12/19 03:44:57;;;;;;;15.38;7.68;;;5.90;99.90;;;;;;5046123;28;20687;-82
2021/12/19 03:47:25;;;;;;;16.30;7.90;;;5.90;99.90;;;;;;5055906;28;20196;-81
2021/12/19 03:49:53;;;;;;;18.35;6.55;;;5.90;99.90;;;;;;5060939;28;20335;-82
2021/12/19 03:52:21;;;;;;;23.08;7.05;;;5.80;99.90;;;;;;5055690;28;20237;-83
2021/12/19 03:54:49;;;;;;;13.13;6.45;;;5.60;99.90;;;;;;5060302;28;20211;-81
2021/12/19 03:57:17;;;;;;;14.55;6.20;;;5.40;1.00;;;;;;5060703;28;20722;-81
2021/12/19 03:59:49;;;;;;;11.82;5.93;;;5.20;1.00;;;;;;5054600;28;20330;-82
2021/12/19 04:02:24;;;;;;;12.10;6.20;;;5.30;1.00;;;;;;5058796;28;20641;-82
2021/12/19 04:04:52;;;;;;;12.07;6.57;;;5.00;1.00;;;;;;5051297;28;20578;-81
2021/12/19 04:07:21;;;;;;;9.30;5.15;;;5.50;1.00;;;;;;5060082;28;20588;-81
2021/12/19 04:09:49;;;;;;;11.07;4.68;;;5.40;1.00;;;;;;5058618;28;20232;-83
2021/12/19 04:12:18;;;;;;;14.00;6.03;;;5.40;1.00;;;;;;5054470;28;20212;-81
2021/12/19 04:14:48;;;;;;;9.02;4.32;;;5.40;1.00;;;;;;5058490;28;20707;-82
2021/12/19 04:17:16;;;;;;;10.13;4.28;;;5.40;99.90;;;;;;5059320;28;20201;-84
2021/12/19 04:19:45;;;;;;;12.10;6.18;;;5.20;99.90;;;;;;5060661;28;20216;-80
2021/12/19 04:22:13;;;;;;;8.68;3.85;;;5.10;1.00;;;;;;5057301;28;20287;-83
2021/12/19 04:24:41;;;;;;;10.00;4.55;;;5.00;1.00;;;;;;5054003;28;20209;-81
2021/12/19 04:27:09;;;;;;;10.68;4.88;;;5.10;1.00;;;;;;5057806;28;20203;-82
2021/12/19 04:29:38;;;;;;;8.05;4.10;;;5.30;1.00;;;;;;5054957;28;20949;-83
2021/12/19 04:32:08;;;;;;;9.32;4.07;;;5.20;99.90;;;;;;5056671;28;20205;-83
2021/12/19 04:34:37;;;;;;;10.25;4.13;;;5.20;1.00;;;;;;5060436;28;20218;-83
2021/12/19 04:37:17;;;;;;;9.00;4.47;;;5.30;99.90;;;;;;5060768;28;20783;-82
2021/12/19 04:39:55;;;;;;;11.05;5.82;;;5.10;99.90;;;;;;5055815;28;20226;-82
2021/12/19 04:53:35;;;;;;;11.60;5.13;;;4.70;1.00;;;;;;5049313;28;20235;-86
2021/12/19 04:56:25;;;;;;;8.07;4.60;;;4.70;1.00;;;;;;5061151;28;20204;-83
2021/12/19 05:04:53;;;;;;;11.10;4.93;;;4.40;99.90;;;;;;5057671;28;20670;-84
2021/12/19 05:15:49;;;;;;;11.90;4.90;;;4.90;1.00;;;;;;5002847;28;20218;-82
2021/12/19 05:18:18;;;;;;;12.43;5.85;;;5.10;1.00;;;;;;5054934;28;20214;-82
2021/12/19 05:20:54;;;;;;;9.68;5.03;;;5.10;1.00;;;;;;5057674;28;20266;-84
2021/12/19 05:23:28;;;;;;;16.25;6.03;;;5.40;1.00;;;;;;5062897;28;20198;-84
2021/12/19 05:25:56;;;;;;;12.45;5.00;;;5.20;1.00;;;;;;5058480;28;20197;-83
2021/12/19 05:28:24;;;;;;;10.90;5.00;;;5.30;1.00;;;;;;5058187;28;20197;-83
2021/12/19 05:30:53;;;;;;;12.82;5.07;;;5.20;1.00;;;;;;5051195;28;20216;-81
2021/12/19 05:33:21;;;;;;;13.32;5.55;;;5.00;1.00;;;;;;5063513;28;20688;-82
2021/12/19 05:36:08;;;;;;;13.13;5.20;;;5.30;1.00;;;;;;5057005;28;20227;-83
2021/12/19 05:46:59;;;;;;;13.45;6.40;;;5.30;1.00;;;;;;5053857;28;20208;-82
2021/12/19 05:49:28;;;;;;;11.68;4.55;;;5.00;1.00;;;;;;5057069;28;20604;-83
2021/12/19 05:51:58;;;;;;;10.30;4.45;;;5.30;1.00;;;;;;5061805;28;20222;-84
2021/12/19 05:54:26;;;;;;;9.25;5.10;;;5.20;1.00;;;;;;5059157;28;20756;-82
2021/12/19 05:56:54;;;;;;;9.27;4.72;;;5.20;1.00;;;;;;5054630;28;20697;-82
2021/12/19 05:59:23;;;;;;;13.30;6.15;;;5.30;1.00;;;;;;5059773;28;20203;-81
2021/12/19 06:01:51;;;;;;;9.15;4.78;;;5.30;1.00;;;;;;5056019;28;20221;-82
2021/12/19 06:04:19;;;;;;;10.57;5.30;;;5.60;1.00;;;;;;5052878;28;20258;-82
2021/12/19 06:06:47;;;;;;;9.77;5.68;;;5.30;1.00;;;;;;5059568;28;20702;-83
2021/12/19 06:09:17;;;;;;;5.88;3.55;;;5.30;1.00;;;;;;5056743;28;20210;-82
2021/12/19 06:11:45;;;;;;;10.02;4.40;;;5.30;1.00;;;;;;5062052;28;20211;-83
2021/12/19 06:14:13;;;;;;;12.82;5.22;;;5.30;1.00;;;;;;5049762;28;20228;-82
2021/12/19 06:16:42;;;;;;;10.23;5.20;;;5.40;1.00;;;;;;5060156;28;20204;-83
2021/12/19 06:19:10;;;;;;;10.82;4.97;;;5.40;1.00;;;;;;5057267;28;20212;-82
2021/12/19 06:21:38;;;;;;;8.65;4.57;;;5.50;1.00;;;;;;5059120;28;20265;-84
2021/12/19 06:24:07;;;;;;;8.20;4.93;;;5.50;1.00;;;;;;5053258;28;20208;-82
2021/12/19 06:26:37;;;;;;;10.20;4.30;;;5.40;1.00;;;;;;5057024;28;20237;-82
2021/12/19 06:29:06;;;;;;;7.65;3.60;;;5.30;1.00;;;;;;5059356;28;20656;-82
2021/12/19 06:31:34;;;;;;;6.35;3.45;;;5.40;99.90;;;;;;5048610;28;21838;-80
2021/12/19 06:34:02;;;;;;;8.68;4.15;;;5.30;99.90;;;;;;5060159;28;20220;-82
2021/12/19 06:36:30;;;;;;;8.40;3.85;;;5.50;99.90;;;;;;5057533;28;20200;-84
2021/12/19 06:38:59;;;;;;;9.35;3.78;;;5.30;99.90;;;;;;5055660;28;20690;-82
2021/12/19 06:41:27;;;;;;;5.40;2.72;;;5.20;1.00;;;;;;5057476;28;20580;-82
2021/12/19 06:43:56;;;;;;;5.85;3.53;;;5.20;1.00;;;;;;5060946;28;20272;-82
2021/12/19 06:46:25;;;;;;;7.82;4.65;;;5.20;1.00;;;;;;5049177;28;20236;-82
2021/12/19 06:48:53;;;;;;;7.80;4.30;;;5.20;1.00;;;;;;5059180;28;20481;-82
2021/12/19 06:51:22;;;;;;;7.32;3.72;;;5.40;1.00;;;;;;5057148;28;20769;-84
2021/12/19 06:53:50;;;;;;;8.20;3.95;;;5.40;1.00;;;;;;5053724;28;20207;-83
2021/12/19 06:56:18;;;;;;;8.20;3.13;;;5.40;99.90;;;;;;5058440;28;20208;-81
2021/12/19 06:58:46;;;;;;;5.63;2.80;;;5.40;99.90;;;;;;5052466;28;20204;-83
2021/12/19 07:01:16;;;;;;;6.70;3.85;;;5.40;99.90;;;;;;5058128;28;20360;-82
2021/12/19 07:03:44;;;;;;;8.43;4.32;;;5.40;1.00;;;;;;5056650;28;20234;-82
2021/12/19 07:06:18;;;;;;;6.55;3.30;;;5.30;99.90;;;;;;5017490;28;20245;-82
2021/12/19 07:08:46;;;;;;;7.40;4.45;;;5.30;99.90;;;;;;5015120;28;20201;-84
2021/12/19 07:11:14;;;;;;;5.90;3.70;;;5.30;99.90;;;;;;5022450;28;20214;-82
2021/12/19 07:13:43;;;;;;;6.53;3.40;;;5.30;99.90;;;;;;5002150;28;20633;-81
2021/12/19 07:16:11;;;;;;;9.45;4.55;;;5.30;99.90;;;;;;5021572;28;20209;-83
2021/12/19 07:18:42;;;;;;;9.80;4.20;;;5.30;99.90;;;;;;5024999;28;20213;-83
2021/12/19 07:21:12;;;;;;;8.32;3.45;;;5.30;99.90;;;;;;5026847;28;20222;-83
2021/12/19 07:23:40;;;;;;;8.13;4.97;;;5.30;99.90;;;;;;5021999;28;20449;-84
2021/12/19 07:26:08;;;;;;;5.40;3.33;;;5.30;99.90;;;;;;5025800;28;20979;-86
2021/12/19 07:28:36;;;;;;;8.15;3.55;;;5.40;99.90;;;;;;5035340;28;20216;-83
2021/12/19 07:31:04;;;;;;;8.27;4.13;;;5.50;99.90;;;;;;5018104;28;20460;-81
2021/12/19 07:33:32;;;;;;;7.20;3.67;;;5.20;99.90;;;;;;5031526;28;20246;-83
2021/12/19 07:36:02;;;;;;;4.90;3.45;;;5.10;1.00;;;;;;5032846;28;20461;-81
2021/12/19 07:38:35;;;;;;;7.00;4.47;;;5.20;1.00;;;;;;5026031;28;20202;-82
2021/12/19 07:41:04;;;;;;;8.35;3.17;;;5.30;99.90;;;;;;5027630;28;20223;-84
2021/12/19 07:43:33;;;;;;;6.60;3.00;;;5.30;99.90;;;;;;5026824;28;20196;-84
2021/12/19 07:46:01;;;;;;;6.20;3.53;;;5.10;1.00;;;;;;5017427;28;20201;-77
2021/12/19 07:48:29;;;;;;;9.52;4.22;;;5.00;1.00;;;;;;5028738;28;20205;-80
2021/12/19 07:50:58;;;;;;;8.32;3.85;;;5.10;1.00;;;;;;5025208;28;20280;-81
2021/12/19 07:53:27;;;;;;;6.68;3.30;;;5.10;1.00;;;;;;5026932;28;20211;-85
2021/12/19 07:55:56;;;;;;;6.00;3.23;;;5.10;1.00;;;;;;5023831;28;20222;-83
2021/12/19 07:58:24;;;;;;;8.40;3.75;;;5.20;1.00;;;;;;5025907;28;20446;-82
2021/12/19 08:00:53;;;;;;;8.10;3.80;;;5.20;1.00;;;;;;5021549;28;20225;-81
2021/12/19 08:03:21;;;;;;;8.27;2.80;;;5.20;1.00;;;;;;5017864;28;20462;-84
2021/12/19 08:05:50;;;;;;;4.93;3.25;;;5.30;1.00;;;;;;5029248;28;20198;-82
2021/12/19 08:08:25;;;;;;;8.98;4.45;;;5.60;1.00;;;;;;5022864;28;20214;-83
2021/12/19 08:13:41;;;;;;;6.25;3.33;;;5.20;1.00;;;;;;5018388;28;20254;-83
2021/12/19 08:16:09;;;;;;;4.80;3.15;;;5.20;1.00;;;;;;5026878;28;20755;-82
2021/12/19 08:18:37;;;;;;;6.30;3.80;;;5.20;1.00;;;;;;5028367;28;20208;-79
2021/12/19 08:21:06;;;;;;;5.38;2.63;;;5.30;1.00;;;;;;5021352;28;20351;-82
2021/12/19 08:23:35;;;;;;;4.45;2.75;;;5.30;1.00;;;;;;5023334;28;20216;-81
2021/12/19 08:26:04;;;;;;;4.80;1.88;;;5.30;1.00;;;;;;5027805;28;20198;-81
2021/12/19 08:28:32;;;;;;;3.30;1.77;;;5.40;1.00;;;;;;5023291;28;20463;-79
2021/12/19 08:31:01;;;;;;;3.67;2.05;;;5.40;99.90;;;;;;5020777;28;20222;-80
2021/12/19 08:33:29;;;;;;;3.45;1.90;;;5.60;99.90;;;;;;5014510;28;20201;-82
2021/12/19 08:35:59;;;;;;;4.78;2.92;;;5.30;99.90;;;;;;5022098;28;20217;-81
2021/12/19 08:38:27;;;;;;;4.80;2.28;;;5.30;1.00;;;;;;5016837;28;20213;-81
2021/12/19 08:40:55;;;;;;;4.50;2.22;;;5.30;99.90;;;;;;5020069;28;20243;-82
2021/12/19 08:43:25;;;;;;;5.30;2.75;;;5.30;99.90;;;;;;5027325;28;20196;-86
2021/12/19 08:45:54;;;;;;;6.18;3.08;;;5.20;1.00;;;;;;5023134;28;20671;-79
2021/12/19 08:48:22;;;;;;;6.65;3.05;;;5.20;1.00;;;;;;5016805;28;20221;-81
2021/12/19 08:50:51;;;;;;;5.68;2.67;;;5.20;1.00;;;;;;5014824;28;20277;-80
2021/12/19 08:53:19;;;;;;;5.03;3.22;;;5.40;1.00;;;;;;5019551;28;20259;-83
2021/12/19 08:55:47;;;;;;;5.47;2.40;;;5.40;1.00;;;;;;5020295;28;20216;-85
2021/12/19 08:58:16;;;;;;;5.45;3.10;;;5.40;1.00;;;;;;5027300;28;20205;-85
2021/12/19 09:00:45;;;;;;;4.43;2.92;;;5.40;1.00;;;;;;5021145;28;20654;-82
2021/12/19 09:03:17;;;;;;;5.93;3.75;;;5.40;1.00;;;;;;5021538;28;20286;-84
2021/12/19 09:05:46;;;;;;;6.10;2.72;;;5.30;99.90;;;;;;5029681;28;20826;-84
2021/12/19 09:08:14;;;;;;;5.90;2.60;;;5.20;1.00;;;;;;5026657;28;20200;-83
2021/12/19 09:10:43;;;;;;;6.65;2.50;;;5.20;1.00;;;;;;5027678;28;20223;-81
2021/12/19 09:13:11;;;;;;;4.90;3.00;;;5.20;1.00;;;;;;5013620;28;20201;-83
2021/12/19 09:15:40;;;;;;;3.80;1.80;;;5.20;1.00;;;;;;5021572;28;20784;-81
2021/12/19 09:18:10;;;;;;;5.20;2.28;;;5.30;1.00;;;;;;5022082;28;20212;-84
2021/12/19 09:20:38;;;;;;;5.30;2.22;;;5.30;1.00;;;;;;5023245;28;20232;-78
2021/12/19 09:23:06;;;;;;;4.38;2.42;;;5.40;1.00;;;;;;5013228;28;20202;-82
2021/12/19 09:25:37;;;;;;;4.60;2.08;;;5.40;1.00;;;;;;5023284;28;20420;-81
2021/12/19 09:28:05;;;;;;;4.28;1.90;;;5.40;1.00;;;;;;5026610;28;20198;-82
2021/12/19 09:30:34;;;;;;;3.22;1.75;;;5.40;1.00;;;;;;5016564;28;20221;-82
2021/12/19 09:33:02;;;;;;;2.42;1.80;;;5.30;1.00;;;;;;5026465;28;20665;-81
2021/12/19 09:35:32;;;;;;;3.92;1.92;;;5.40;1.00;;;;;;5015719;28;20771;-81
2021/12/19 09:38:01;;;;;;;2.88;1.55;;;5.40;99.90;;;;;;5023321;28;20193;-80
2021/12/19 09:40:34;;;;;;;2.20;1.35;;;5.40;99.90;;;;;;5015951;28;20761;-84
2021/12/19 09:43:04;;;;;;;2.33;1.50;;;5.50;99.90;;;;;;5016654;28;20680;-79
2021/12/19 09:45:34;;;;;;;4.22;2.30;;;5.50;99.90;;;;;;5024240;28;20202;-82
2021/12/19 09:48:02;;;;;;;6.30;2.65;;;5.40;99.90;;;;;;5026240;28;20198;-80
2021/12/19 09:50:32;;;;;;;4.15;1.88;;;5.40;99.90;;;;;;5029044;28;20228;-81
2021/12/19 09:53:00;;;;;;;2.95;1.52;;;5.70;99.90;;;;;;5032549;28;20212;-84
2021/12/19 09:55:30;;;;;;;5.28;2.00;;;5.40;99.90;;;;;;5028515;28;20224;-84
2021/12/19 09:57:59;;;;;;;3.10;1.90;;;5.50;99.90;;;;;;5027543;28;20228;-80
2021/12/19 10:00:28;;;;;;;3.70;1.95;;;5.50;99.90;;;;;;5017888;28;20221;-81
2021/12/19 10:02:57;;;;;;;2.63;1.48;;;5.50;99.90;;;;;;5022096;28;20224;-80
2021/12/19 10:05:27;;;;;;;1.40;1.30;;;5.50;99.90;;;;;;5025177;28;20257;-80
2021/12/19 10:08:00;;;;;;;3.42;1.58;;;5.50;99.90;;;;;;5029997;28;20208;-79
2021/12/19 10:10:42;;;;;;;3.10;1.70;;;5.50;99.90;;;;;;5019047;28;20721;-81
2021/12/19 10:13:10;;;;;;;2.53;1.50;;;5.10;99.90;;;;;;5017372;28;20202;-81
2021/12/19 10:15:41;;;;;;;1.77;1.20;;;5.50;1.00;;;;;;5022217;28;20861;-81
2021/12/19 10:18:11;;;;;;;3.33;1.58;;;5.50;1.00;;;;;;5027759;28;20209;-80
2021/12/19 10:20:47;;;;;;;2.92;1.73;;;5.60;1.00;;;;;;5030627;28;20221;-83
2021/12/19 10:23:20;;;;;;;3.40;1.47;;;5.60;99.90;;;;;;5019014;28;20209;-79
2021/12/19 10:26:00;;;;;;;2.78;1.65;;;5.70;1.00;;;;;;5028813;28;20453;-80
2021/12/19 10:28:29;;;;;;;2.03;1.30;;;5.70;99.90;;;;;;5016362;28;20193;-83
2021/12/19 10:30:59;;;;;;;3.17;1.98;;;5.70;99.90;;;;;;5022889;28;20236;-83
2021/12/19 10:33:32;;;;;;;4.68;2.13;;;5.70;99.90;;;;;;5023022;28;20204;-82
2021/12/19 10:36:02;;;;;;;2.90;1.38;;;5.80;99.90;;;;;;5030265;28;20309;-81
2021/12/19 10:38:34;;;;;;;3.28;1.95;;;5.80;99.90;;;;;;5020101;28;20569;-80
2021/12/19 10:41:06;;;;;;;2.45;1.50;;;5.80;99.90;;;;;;5029000;28;20226;-81
2021/12/19 10:43:41;;;;;;;1.25;1.15;;;5.60;99.90;;;;;;5021041;28;20210;-81
2021/12/19 10:46:10;;;;;;;3.75;1.67;;;5.50;99.90;;;;;;5026419;28;20699;-81
2021/12/19 10:48:39;;;;;;;1.65;1.42;;;5.20;1.00;;;;;;5031246;28;20240;-78
2021/12/19 10:51:10;;;;;;;2.67;1.77;;;5.20;1.00;;;;;;5021607;28;20835;-81
2021/12/19 10:53:43;;;;;;;6.35;2.53;;;5.30;1.00;;;;;;5031193;28;20744;-81
2021/12/19 10:56:13;;;;;;;2.25;1.63;;;5.40;1.00;;;;;;5027094;28;20279;-82
2021/12/19 10:58:45;;;;;;;3.08;1.85;;;5.40;1.00;;;;;;5015535;28;20211;-83
2021/12/19 11:01:19;;;;;;;4.05;2.08;;;5.40;1.00;;;;;;5024281;28;20230;-81
2021/12/19 11:03:57;;;;;;;2.65;1.70;;;5.40;1.00;;;;;;5022388;28;20203;-79
2021/12/19 11:06:31;;;;;;;2.50;2.25;;;5.50;1.00;;;;;;5023288;28;20188;-81
2021/12/19 11:09:06;;;;;;;1.40;1.30;;;5.50;1.00;;;;;;5025346;28;20225;-83
2021/12/19 11:11:41;;;;;;;3.30;1.88;;;5.50;1.00;;;;;;5023967;28;20229;-79
2021/12/19 11:14:12;;;;;;;2.88;1.30;;;5.50;1.00;;;;;;5017802;28;20201;-81
2021/12/19 11:16:41;;;;;;;2.50;1.50;;;5.50;1.00;;;;;;5027154;28;20218;-81
2021/12/19 11:19:10;;;;;;;2.67;2.20;;;5.30;1.00;;;;;;5017432;28;20210;-81
2021/12/19 11:21:39;;;;;;;2.42;1.60;;;5.10;1.00;;;;;;5048115;28;20212;-81
2021/12/19 11:24:12;;;;;;;2.85;1.20;;;5.00;1.00;;;;;;5017404;28;20573;-82
2021/12/19 11:26:42;;;;;;;2.03;1.15;;;5.10;1.00;;;;;;5030394;28;20203;-80
2021/12/19 11:29:12;;;;;;;4.00;1.30;;;5.10;1.00;;;;;;5019261;28;20209;-77
2021/12/19 11:31:42;;;;;;;3.38;1.88;;;5.20;1.00;;;;;;5016746;28;20208;-81
2021/12/19 11:34:32;;;;;;;3.17;1.40;;;5.30;1.00;;;;;;5026937;28;20254;-84
2021/12/19 11:37:08;;;;;;;5.00;2.40;;;5.50;1.00;;;;;;5018171;28;20580;-83
2021/12/19 11:39:41;;;;;;;3.42;2.10;;;5.40;1.00;;;;;;5025070;28;20464;-80
2021/12/19 11:42:13;;;;;;;3.75;1.85;;;5.40;1.00;;;;;;5023772;28;20206;-79
2021/12/19 11:44:48;;;;;;;2.33;1.48;;;5.50;1.00;;;;;;5023615;28;20205;-80
2021/12/19 11:47:37;;;;;;;1.70;1.15;;;5.50;1.00;;;;;;5014775;28;20277;-80
2021/12/19 11:50:22;;;;;;;1.65;1.00;;;5.80;1.00;;;;;;5041274;28;20230;-79
2021/12/19 11:52:52;;;;;;;1.83;1.42;;;5.50;1.00;;;;;;5018600;28;20198;-79
2021/12/19 11:55:30;;;;;;;1.40;1.25;;;5.60;1.00;;;;;;5027305;28;20774;-79
2021/12/19 11:58:32;;;;;;;2.88;1.70;;;5.60;1.00;;;;;;5032702;28;20252;-81
2021/12/19 12:01:09;;;;;;;2.00;1.75;;;5.70;1.00;;;;;;5011905;28;20333;-81
2021/12/19 12:03:49;;;;;;;1.75;1.38;;;5.80;1.00;;;;;;5024350;28;20211;-80
2021/12/19 12:06:40;;;;;;;2.43;2.10;;;5.60;1.00;;;;;;5029672;28;20560;-83
2021/12/19 12:09:22;;;;;;;2.38;1.17;;;5.60;1.00;;;;;;5022784;28;20454;-81
2021/12/19 12:12:31;;;;;;;2.53;1.33;;;5.60;1.00;;;;;;5017386;28;20709;-83
2021/12/19 12:15:08;;;;;;;2.38;2.17;;;5.60;1.00;;;;;;5024433;28;20205;-82
2021/12/19 12:17:46;;;;;;;3.47;1.90;;;5.60;1.00;;;;;;5026207;28;20244;-82
2021/12/19 12:20:23;;;;;;;2.63;1.83;;;5.60;1.00;;;;;;5026613;28;20480;-80
2021/12/19 12:22:55;;;;;;;1.88;1.42;;;5.60;1.00;;;;;;5023754;28;20267;-81
2021/12/19 12:25:33;;;;;;;3.33;2.15;;;5.50;1.00;;;;;;5020386;28;20263;-82
2021/12/19 12:28:08;;;;;;;2.70;1.90;;;5.80;1.00;;;;;;5024062;28;20388;-78
2021/12/19 12:30:41;;;;;;;1.95;1.67;;;5.60;1.00;;;;;;5018886;28;20468;-81
2021/12/19 12:33:14;;;;;;;4.00;1.60;;;5.70;1.00;;;;;;5021024;28;20584;-82
2021/12/19 12:35:45;;;;;;;4.00;2.17;;;5.90;1.00;;;;;;5016357;28;20753;-81
2021/12/19 12:38:14;;;;;;;2.25;1.58;;;5.70;1.00;;;;;;5009977;28;20480;-82
2021/12/19 12:40:57;;;;;;;2.67;2.10;;;5.70;1.00;;;;;;5004982;28;20230;-82
2021/12/19 12:43:30;;;;;;;2.97;1.83;;;5.70;1.00;;;;;;5008812;28;20202;-81
2021/12/19 12:46:08;;;;;;;4.05;2.08;;;5.70;1.00;;;;;;5019877;28;20574;-81
2021/12/19 12:48:42;;;;;;;1.95;1.80;;;5.70;1.00;;;;;;5022228;28;20198;-81
2021/12/19 12:51:13;;;;;;;2.50;2.30;;;5.70;1.00;;;;;;5016578;28;20280;-81
2021/12/19 12:53:47;;;;;;;1.70;1.60;;;5.70;1.00;;;;;;5004031;28;20210;-81
2021/12/19 12:56:19;;;;;;;2.45;1.55;;;5.80;1.00;;;;;;5004612;28;20370;-82
2021/12/19 12:58:51;;;;;;;2.28;1.35;;;5.80;1.00;;;;;;5015470;28;20222;-81
2021/12/19 13:01:34;;;;;;;1.75;1.27;;;5.50;1.00;;;;;;5011439;28;20293;-81
2021/12/19 13:04:13;;;;;;;2.40;1.80;;;5.60;1.00;;;;;;5024323;28;20202;-84
2021/12/19 13:06:52;;;;;;;1.77;1.50;;;5.60;1.00;;;;;;5019300;28;20210;-83
2021/12/19 13:09:24;;;;;;;1.90;1.70;;;5.60;1.00;;;;;;5015466;28;20233;-82
2021/12/19 13:11:57;;;;;;;2.28;2.08;;;5.70;1.00;;;;;;5017572;28;20233;-79
2021/12/19 13:14:29;;;;;;;1.95;1.65;;;5.60;1.00;;;;;;5013617;28;20288;-81
2021/12/19 13:16:59;;;;;;;1.95;1.80;;;5.60;1.00;;;;;;5007491;28;20317;-81
2021/12/19 13:19:55;;;;;;;3.97;2.30;;;5.50;1.00;;;;;;5018844;28;20207;-83
2021/12/19 13:22:33;;;;;;;4.30;1.83;;;5.50;1.00;;;;;;5026376;28;20292;-83
2021/12/19 13:25:06;;;;;;;2.65;2.03;;;5.40;1.00;;;;;;5020522;28;20313;-79
2021/12/19 13:27:36;;;;;;;2.00;1.70;;;5.30;1.00;;;;;;5022285;28;20204;-82
2021/12/19 13:30:11;;;;;;;1.70;1.60;;;5.40;1.00;;;;;;5008703;28;20352;-81
2021/12/19 13:32:40;;;;;;;1.88;1.77;;;5.50;1.00;;;;;;5014224;28;20442;-82
2021/12/19 13:35:16;;;;;;;3.13;2.13;;;5.60;1.00;;;;;;5015137;28;20305;-82
2021/12/19 13:37:57;;;;;;;4.60;1.90;;;5.70;1.00;;;;;;5015908;28;20774;-81
2021/12/19 13:40:27;;;;;;;3.38;2.25;;;5.50;1.00;;;;;;5017627;28;20299;-82
2021/12/19 13:43:00;;;;;;;3.67;1.80;;;5.70;1.00;;;;;;5026385;28;20313;-82
2021/12/19 13:45:52;;;;;;;4.75;1.88;;;5.50;1.00;;;;;;5013778;28;20194;-82
2021/12/19 13:48:26;;;;;;;1.70;1.30;;;5.50;1.00;;;;;;5019412;28;20531;-80
2021/12/19 13:50:58;;;;;;;3.08;2.00;;;5.50;1.00;;;;;;5019492;28;20224;-81
2021/12/19 13:53:28;;;;;;;2.13;1.92;;;5.60;1.00;;;;;;5014013;28;20746;-84
2021/12/19 13:56:02;;;;;;;4.05;2.22;;;5.60;1.00;;;;;;5015119;28;20208;-81
2021/12/19 13:58:32;;;;;;;2.88;1.80;;;5.60;1.00;;;;;;5012286;28;20425;-82
2021/12/19 14:01:11;;;;;;;4.40;2.70;;;5.50;1.00;;;;;;5018155;28;20234;-80
2021/12/19 14:03:43;;;;;;;3.45;1.95;;;5.50;1.00;;;;;;5014413;28;20224;-81
2021/12/19 14:06:13;;;;;;;4.78;1.90;;;5.60;1.00;;;;;;5014908;28;20198;-80
2021/12/19 14:08:42;;;;;;;2.85;2.15;;;5.60;1.00;;;;;;5012502;28;20225;-82
2021/12/19 14:11:21;;;;;;;3.77;2.17;;;5.60;1.00;;;;;;5015594;28;20221;-82
2021/12/19 14:14:04;;;;;;;2.03;1.40;;;5.70;1.00;;;;;;5012213;28;20456;-82
2021/12/19 14:16:37;;;;;;;3.35;2.13;;;5.70;1.00;;;;;;5013321;28;20554;-81
2021/12/19 14:19:26;;;;;;;3.83;2.38;;;5.80;1.00;;;;;;5013563;28;20229;-82
2021/12/19 14:21:56;;;;;;;2.75;1.73;;;5.80;1.00;;;;;;5012529;28;20681;-82
2021/12/19 14:24:35;;;;;;;3.80;2.25;;;5.80;1.00;;;;;;5022637;28;20480;-82